Terminal Aerodrome Forecast
Issued by NWS

Home | Current Version | Previous Version | Text Only | Print | Product List | Glossary On
Versions: 1 2 3 4 5 6 7 8 9 10 11 12 13 14 15
000
FTUS45 KTFX 251128
TAFBZN
TAF
KBZN 251128Z 2512/2612 VRB04KT P6SM VCFG FEW001
     FM251400 VRB06KT P6SM SCT120
     FM252100 VRB06KT P6SM VCSH SCT070 SCT120
     FM260200 15006KT P6SM BKN120=

USA.gov is the U.S. government's official web portal to all federal, state and local government web resources and services.